Time;durP1;ratioP1;P1;durP2;ratioP2;P2;SDS_P1;SDS_P2;PMS_P1;PMS_P2;Temp;Humidity;BMP_temperature;BMP_pressure;BME280_temperature;BME280_humidity;BME280_pressure;Samples;Min_cycle;Max_cycle;Signal;HPM_P1;HPM_P2
2022/08/13 00:04:35;;;;;;;1.75;1.55;;;;;;;29.62;37.36;96570.78;5095363;28;20474;-30
2022/08/13 00:09:26;;;;;;;2.45;2.20;;;;;;;29.61;37.13;96574.88;5095288;28;20024;-29
2022/08/13 00:28:40;;;;;;;1.95;1.70;;;;;;;29.53;36.83;96552.47;5094771;28;20408;-29
2022/08/13 00:31:06;;;;;;;1.95;1.70;;;;;;;29.57;36.83;96555.66;5094514;28;20016;-29
2022/08/13 00:33:31;;;;;;;2.00;1.38;;;;;;;29.58;36.87;96570.38;5094916;28;20455;-29
2022/08/13 00:35:57;;;;;;;1.90;1.50;;;;;;;29.64;36.91;96557.00;5094677;28;20028;-29
2022/08/13 00:38:28;;;;;;;1.65;1.33;;;;;;;29.56;36.97;96548.56;5094745;28;20947;-29
2022/08/13 00:40:59;;;;;;;3.00;1.55;;;;;;;29.55;37.03;96544.25;5094548;28;20543;-28
2022/08/13 00:43:34;;;;;;;1.95;1.85;;;;;;;29.59;37.44;96543.91;5094565;28;20069;-28
2022/08/13 00:46:01;;;;;;;1.52;1.40;;;;;;;29.52;37.28;96553.78;5094517;28;20473;-29
2022/08/13 00:48:42;;;;;;;2.88;1.67;;;;;;;29.56;37.09;96556.19;5094442;28;20032;-28
2022/08/13 00:51:10;;;;;;;1.85;1.60;;;;;;;29.52;37.06;96550.22;5094622;28;20035;-28
2022/08/13 00:53:40;;;;;;;1.80;1.63;;;;;;;29.54;37.14;96551.19;5093183;28;20016;-29
2022/08/13 00:56:08;;;;;;;1.60;1.48;;;;;;;29.56;37.16;96542.97;5094199;28;20027;-29
2022/08/13 00:58:34;;;;;;;1.40;1.30;;;;;;;29.54;36.91;96542.78;5094308;28;20363;-28
2022/08/13 01:01:01;;;;;;;1.55;1.45;;;;;;;29.51;36.94;96545.94;5094267;28;20024;-30
2022/08/13 01:03:31;;;;;;;1.95;1.60;;;;;;;29.57;37.03;96533.28;5094297;28;20020;-29
2022/08/13 01:06:02;;;;;;;1.65;1.50;;;;;;;29.49;37.00;96532.50;5092258;28;20048;-28
2022/08/13 01:08:31;;;;;;;1.60;1.50;;;;;;;29.46;37.06;96525.22;5094234;28;20040;-28
2022/08/13 01:11:02;;;;;;;1.98;1.60;;;;;;;29.48;36.85;96528.22;5093939;28;20032;-30
2022/08/13 01:13:30;;;;;;;1.80;1.40;;;;;;;29.49;36.83;96537.34;5094145;28;20020;-29
2022/08/13 01:15:57;;;;;;;1.88;1.50;;;;;;;29.55;36.56;96532.38;5094022;28;20056;-28
2022/08/13 01:18:24;;;;;;;1.95;1.75;;;;;;;29.47;36.74;96540.69;5093916;28;20046;-28
2022/08/13 01:20:59;;;;;;;1.27;1.17;;;;;;;29.57;36.30;96538.88;5093926;28;20474;-28
2022/08/13 01:23:25;;;;;;;1.38;1.13;;;;;;;29.48;36.43;96547.78;5093848;28;20031;-29
2022/08/13 01:25:54;;;;;;;1.48;1.20;;;;;;;29.59;36.23;96543.91;5093959;28;20028;-29
2022/08/13 01:28:22;;;;;;;1.55;1.40;;;;;;;29.53;36.21;96549.69;5093683;28;20019;-28
2022/08/13 01:30:52;;;;;;;1.65;1.45;;;;;;;29.58;35.79;96551.56;5093791;28;20527;-31
2022/08/13 01:33:18;;;;;;;1.52;1.38;;;;;;;29.56;36.02;96559.72;5093883;28;20480;-28
2022/08/13 01:35:46;;;;;;;1.48;1.20;;;;;;;29.55;35.92;96558.25;5093736;28;20024;-28
2022/08/13 01:38:13;;;;;;;1.73;1.48;;;;;;;29.56;35.53;96564.56;5093474;28;20436;-28
2022/08/13 01:40:39;;;;;;;2.03;1.30;;;;;;;29.53;35.67;96577.63;5093654;28;20028;-30
2022/08/13 01:43:05;;;;;;;1.38;1.20;;;;;;;29.61;35.47;96578.41;5093761;28;20044;-28
2022/08/13 01:45:32;;;;;;;2.08;1.48;;;;;;;29.57;35.26;96588.44;5093522;28;20557;-28
2022/08/13 01:50:42;;;;;;;1.60;1.27;;;;;;;29.58;34.91;96579.50;5093727;28;20023;-30
2022/08/13 01:53:13;;;;;;;1.55;1.25;;;;;;;29.39;35.53;96579.03;5093387;28;20081;-28
2022/08/13 01:55:45;;;;;;;1.50;1.13;;;;;;;29.39;35.20;96572.69;5093744;28;20024;-29
2022/08/13 01:58:19;;;;;;;1.30;1.20;;;;;;;29.42;35.25;96566.00;5093368;28;20069;-29
2022/08/13 02:00:47;;;;;;;2.90;1.30;;;;;;;29.52;34.77;96575.38;5093423;28;20039;-28
2022/08/13 02:03:14;;;;;;;1.98;1.20;;;;;;;29.49;34.75;96582.81;5093688;28;20089;-29
2022/08/13 02:05:40;;;;;;;1.60;1.00;;;;;;;29.47;34.83;96579.81;5093183;28;20047;-29
2022/08/13 02:08:08;;;;;;;1.15;1.05;;;;;;;29.38;34.72;96582.38;5093281;28;20020;-28
2022/08/13 02:10:38;;;;;;;2.03;1.23;;;;;;;29.43;34.81;96562.63;5093277;28;20032;-28
2022/08/13 02:13:11;;;;;;;1.33;1.10;;;;;;;29.42;34.60;96554.84;5091798;28;20020;-29
2022/08/13 02:15:38;;;;;;;1.20;1.10;;;;;;;29.49;34.52;96559.72;5093915;28;20032;-28
2022/08/13 02:18:04;;;;;;;2.33;1.10;;;;;;;29.48;34.73;96564.53;5097506;28;20028;-28
2022/08/13 02:20:35;;;;;;;1.70;1.20;;;;;;;29.44;34.68;96558.56;5097376;28;20020;-29
2022/08/13 02:23:02;;;;;;;1.20;1.10;;;;;;;29.38;35.33;96571.94;5097331;28;20405;-30
2022/08/13 02:25:29;;;;;;;1.48;1.10;;;;;;;29.37;34.86;96578.78;5097540;28;20370;-28
2022/08/13 02:27:56;;;;;;;1.00;1.00;;;;;;;29.40;34.85;96586.13;5097103;28;20024;-28
2022/08/13 02:30:26;;;;;;;1.63;1.05;;;;;;;29.48;34.74;96591.75;5097381;28;20028;-28
2022/08/13 02:32:51;;;;;;;1.75;1.20;;;;;;;29.40;34.68;96600.09;5097151;28;20024;-28
2022/08/13 02:35:18;;;;;;;1.20;1.10;;;;;;;29.36;35.09;96601.69;5096966;28;20031;-28
2022/08/13 02:37:44;;;;;;;1.33;1.20;;;;;;;29.44;34.96;96596.91;5097073;28;20153;-29
2022/08/13 02:42:56;;;;;;;2.35;1.30;;;;;;;29.29;35.19;96592.72;5096951;28;20086;-28
2022/08/13 02:45:23;;;;;;;1.40;1.23;;;;;;;29.38;34.92;96579.56;5096944;28;20020;-28
2022/08/13 02:47:48;;;;;;;1.80;1.33;;;;;;;29.41;34.96;96565.25;5096783;28;20053;-29
2022/08/13 02:50:14;;;;;;;1.92;1.10;;;;;;;29.49;34.71;96571.63;5096884;28;20024;-29
2022/08/13 02:52:41;;;;;;;2.20;1.40;;;;;;;29.50;34.66;96564.75;5096773;28;20020;-28
2022/08/13 02:55:07;;;;;;;1.67;1.08;;;;;;;29.42;34.83;96561.19;5096924;28;20024;-29
2022/08/13 02:57:34;;;;;;;1.20;1.10;;;;;;;29.47;34.66;96576.28;5096865;28;20043;-28
2022/08/13 02:59:59;;;;;;;1.40;1.20;;;;;;;29.50;34.73;96580.75;5096658;28;20028;-29
2022/08/13 03:02:25;;;;;;;1.20;1.08;;;;;;;29.42;34.69;96594.69;5096406;28;20030;-28
2022/08/13 03:04:51;;;;;;;2.53;1.23;;;;;;;29.45;34.67;96612.38;5096342;28;20374;-28
2022/08/13 03:10:39;;;;;;;2.22;1.20;;;;;;;29.34;35.03;96599.44;5096748;28;20070;-28
2022/08/13 03:13:17;;;;;;;1.10;1.00;;;;;;;29.25;35.24;96585.97;5096522;28;20431;-28
2022/08/13 03:15:44;;;;;;;1.30;0.90;;;;;;;29.40;34.96;96566.56;5096316;28;20031;-28
2022/08/13 03:18:11;;;;;;;1.45;1.10;;;;;;;29.37;35.21;96578.78;5096364;28;20059;-28
2022/08/13 03:20:37;;;;;;;2.33;1.35;;;;;;;29.34;35.48;96577.09;5095933;28;20031;-28
2022/08/13 03:23:03;;;;;;;1.45;1.20;;;;;;;29.28;35.70;96556.97;5094578;28;20031;-28
2022/08/13 03:25:30;;;;;;;2.63;1.10;;;;;;;29.40;35.63;96552.59;5096143;28;20462;-28
2022/08/13 03:27:56;;;;;;;2.13;0.93;;;;;;;29.31;35.48;96558.63;5095369;28;20028;-28
2022/08/13 03:30:22;;;;;;;1.40;1.02;;;;;;;29.39;35.42;96539.91;5096095;28;20027;-28
2022/08/13 03:32:49;;;;;;;1.17;1.08;;;;;;;29.36;35.57;96524.22;5095981;28;20024;-28
2022/08/13 03:35:18;;;;;;;1.15;1.00;;;;;;;29.34;35.79;96526.81;5095948;28;20043;-28
2022/08/13 03:37:47;;;;;;;1.48;1.00;;;;;;;29.35;35.99;96528.31;5094457;28;20031;-28
2022/08/13 03:40:14;;;;;;;1.38;1.10;;;;;;;29.41;35.71;96525.41;5095818;28;20099;-29
2022/08/13 03:42:40;;;;;;;1.40;1.10;;;;;;;29.41;36.16;96514.97;5095687;28;20106;-31
2022/08/13 03:45:08;;;;;;;2.00;1.02;;;;;;;29.38;35.97;96521.66;5095633;28;20099;-29
2022/08/13 03:47:33;;;;;;;2.22;1.10;;;;;;;29.36;35.75;96518.63;5095649;28;20024;-28
2022/08/13 03:50:00;;;;;;;1.33;0.93;;;;;;;29.39;36.00;96522.41;5095586;28;20355;-28
2022/08/13 03:52:28;;;;;;;1.30;1.20;;;;;;;29.34;36.03;96515.63;5095618;28;20024;-28
2022/08/13 03:54:54;;;;;;;1.00;0.90;;;;;;;29.34;36.35;96506.50;5095473;28;20440;-28
2022/08/13 03:57:20;;;;;;;1.63;1.25;;;;;;;29.36;36.01;96518.63;5095873;28;20048;-29
2022/08/13 03:59:48;;;;;;;1.00;0.90;;;;;;;29.37;35.90;96514.53;5095623;28;20028;-28
2022/08/13 04:02:15;;;;;;;1.25;0.98;;;;;;;29.36;36.12;96518.63;5095545;28;20089;-29
2022/08/13 04:04:46;;;;;;;1.10;1.00;;;;;;;29.33;36.32;96524.56;5095174;28;20081;-28
2022/08/13 04:07:15;;;;;;;2.30;0.98;;;;;;;29.32;36.21;96526.59;5095291;28;20044;-29
2022/08/13 04:09:45;;;;;;;1.45;0.88;;;;;;;29.33;36.17;96533.69;5095453;28;20027;-28
2022/08/13 04:12:12;;;;;;;1.27;1.00;;;;;;;29.31;36.37;96539.81;5095449;28;20059;-28
2022/08/13 04:14:39;;;;;;;1.30;0.80;;;;;;;29.30;36.22;96543.19;5095076;28;20020;-29
2022/08/13 04:17:08;;;;;;;1.02;0.80;;;;;;;29.30;36.11;96529.22;5095087;28;20103;-30
2022/08/13 04:19:35;;;;;;;1.40;0.90;;;;;;;29.32;36.25;96535.00;5095097;28;20103;-28
2022/08/13 04:22:01;;;;;;;1.73;0.80;;;;;;;29.36;35.71;96549.38;5095086;28;20016;-28
2022/08/13 04:24:27;;;;;;;1.60;1.23;;;;;;;29.32;36.07;96562.91;5094997;28;20024;-29
2022/08/13 04:26:54;;;;;;;1.17;0.88;;;;;;;29.29;36.04;96567.59;5094639;28;20048;-28
2022/08/13 04:29:20;;;;;;;1.25;0.80;;;;;;;29.31;36.02;96567.00;5094437;28;20024;-29
2022/08/13 04:31:46;;;;;;;1.60;0.82;;;;;;;29.26;36.21;96553.97;5094237;28;20359;-29
2022/08/13 04:34:12;;;;;;;1.63;1.00;;;;;;;29.25;36.34;96546.88;5094579;28;20107;-28
2022/08/13 04:36:37;;;;;;;2.20;1.02;;;;;;;29.23;36.36;96539.03;5094952;28;20445;-28
2022/08/13 04:39:03;;;;;;;2.05;1.38;;;;;;;29.24;36.48;96528.63;5093740;28;20028;-28
2022/08/13 04:41:28;;;;;;;1.17;0.90;;;;;;;29.29;36.30;96530.53;5094500;28;20052;-29
2022/08/13 04:43:54;;;;;;;1.92;1.10;;;;;;;29.28;36.58;96537.41;5094510;28;20024;-30
2022/08/13 04:46:19;;;;;;;2.28;1.10;;;;;;;29.29;36.30;96533.31;5094771;28;20048;-29
2022/08/13 04:48:44;;;;;;;2.00;0.85;;;;;;;29.27;36.32;96539.44;5094592;28;20377;-28
2022/08/13 04:51:10;;;;;;;2.20;0.98;;;;;;;29.29;36.17;96519.34;5094573;28;20048;-28
2022/08/13 04:53:35;;;;;;;3.40;1.30;;;;;;;29.25;36.57;96497.34;5094319;28;20042;-29
2022/08/13 04:56:03;;;;;;;2.22;1.10;;;;;;;29.22;36.52;96480.94;5094904;28;20024;-28
2022/08/13 04:58:35;;;;;;;2.58;0.93;;;;;;;29.27;36.54;96468.88;5094701;28;20111;-28
2022/08/13 05:01:08;;;;;;;2.75;1.25;;;;;;;29.22;36.79;96486.53;5094866;28;20051;-29
2022/08/13 05:03:38;;;;;;;3.13;1.00;;;;;;;29.22;36.97;96497.69;5094477;28;20032;-28
2022/08/13 05:06:05;;;;;;;3.83;1.10;;;;;;;29.25;36.90;96516.16;5094141;28;20040;-28
2022/08/13 05:08:33;;;;;;;2.92;1.02;;;;;;;29.26;36.49;96526.78;5094251;28;20020;-28
2022/08/13 05:11:00;;;;;;;2.70;1.00;;;;;;;29.33;36.78;96542.06;5093017;28;20024;-28
2022/08/13 05:13:29;;;;;;;2.17;0.80;;;;;;;29.24;36.77;96548.91;5092957;28;20358;-28
2022/08/13 05:16:01;;;;;;;2.88;1.13;;;;;;;29.26;36.59;96532.38;5093918;28;20027;-29
2022/08/13 05:18:28;;;;;;;1.40;1.00;;;;;;;29.21;37.09;96512.94;5094270;28;20097;-28
2022/08/13 05:20:56;;;;;;;1.65;1.02;;;;;;;29.21;36.98;96547.22;5093912;28;20016;-28
2022/08/13 05:23:23;;;;;;;1.75;1.10;;;;;;;29.22;36.96;96529.16;5093848;28;20024;-29
2022/08/13 05:25:49;;;;;;;2.03;1.10;;;;;;;29.16;37.29;96555.75;5093838;28;20034;-28
2022/08/13 05:28:17;;;;;;;4.05;1.25;;;;;;;29.16;37.19;96561.34;5093753;28;20082;-29
2022/08/13 05:30:44;;;;;;;1.75;0.95;;;;;;;29.18;37.00;96545.50;5093823;28;20023;-28
2022/08/13 05:33:16;;;;;;;1.58;0.93;;;;;;;29.22;37.08;96539.59;5094030;28;20434;-29
2022/08/13 05:35:48;;;;;;;1.73;1.00;;;;;;;29.20;37.01;96517.78;5093737;28;20030;-30
2022/08/13 05:38:22;;;;;;;2.25;0.95;;;;;;;29.16;37.30;96511.06;5093805;28;20531;-28
2022/08/13 05:40:51;;;;;;;1.80;1.10;;;;;;;29.13;37.29;96501.00;5093881;28;20077;-28
2022/08/13 05:43:20;;;;;;;2.38;1.10;;;;;;;29.13;37.41;96501.75;5093798;28;20389;-28
2022/08/13 05:45:59;;;;;;;1.65;1.10;;;;;;;29.15;37.52;96512.38;5093713;28;20097;-29
2022/08/13 05:48:37;;;;;;;1.48;1.02;;;;;;;29.15;37.44;96513.13;5093766;28;20035;-28
2022/08/13 05:51:06;;;;;;;1.40;1.00;;;;;;;29.19;37.16;96515.53;5092010;28;20381;-29
2022/08/13 05:53:32;;;;;;;1.15;0.98;;;;;;;29.16;37.61;96516.66;5093605;28;20016;-28
2022/08/13 05:55:58;;;;;;;2.13;1.00;;;;;;;29.11;37.81;96504.34;5093820;28;20032;-28
2022/08/13 05:58:24;;;;;;;1.60;1.10;;;;;;;29.12;37.49;96491.88;5093464;28;20020;-29
2022/08/13 06:03:37;;;;;;;2.30;1.20;;;;;;;29.18;37.54;96505.66;5093701;28;20053;-28
2022/08/13 06:06:12;;;;;;;1.60;1.23;;;;;;;29.15;37.55;96498.41;5093296;28;20127;-28
2022/08/13 06:08:41;;;;;;;1.33;0.93;;;;;;;29.11;37.85;96498.00;5093606;28;20028;-30
2022/08/13 06:11:11;;;;;;;1.38;0.80;;;;;;;29.16;38.08;96505.50;5093705;28;20024;-29
2022/08/13 06:13:41;;;;;;;1.13;0.90;;;;;;;29.16;37.68;96505.50;5093347;28;20020;-29
2022/08/13 06:16:11;;;;;;;2.13;0.90;;;;;;;29.13;37.88;96520.53;5093252;28;20024;-29
2022/08/13 06:18:40;;;;;;;1.73;1.05;;;;;;;29.17;37.59;96516.13;5093518;28;20032;-28
2022/08/13 06:21:13;;;;;;;0.80;0.77;;;;;;;29.15;38.15;96512.38;5093585;28;20031;-28
2022/08/13 06:23:40;;;;;;;1.40;0.90;;;;;;;29.09;38.13;96528.53;5093609;28;20024;-29
2022/08/13 06:26:11;;;;;;;1.05;0.95;;;;;;;29.15;37.90;96515.16;5093023;28;20016;-29
2022/08/13 06:28:37;;;;;;;1.00;0.80;;;;;;;29.13;38.09;96514.97;5093321;28;20020;-28
2022/08/13 06:31:08;;;;;;;1.52;1.00;;;;;;;29.12;38.20;96510.66;5093157;28;20031;-29
2022/08/13 06:33:36;;;;;;;1.00;0.90;;;;;;;29.13;38.12;96501.00;5126109;28;20458;-30
2022/08/13 06:36:04;;;;;;;1.45;1.13;;;;;;;29.15;37.81;96506.78;5091784;28;20024;-29
2022/08/13 06:38:32;;;;;;;1.60;1.20;;;;;;;29.14;37.89;96511.63;5093043;28;20051;-29
2022/08/13 06:41:01;;;;;;;1.27;0.90;;;;;;;29.10;38.26;96507.69;5092004;28;20407;-28
2022/08/13 06:43:35;;;;;;;1.10;0.95;;;;;;;29.11;38.24;96503.59;5093154;28;20146;-28
2022/08/13 06:46:05;;;;;;;1.23;1.13;;;;;;;29.08;38.27;96521.44;5092965;28;20476;-28
2022/08/13 06:48:39;;;;;;;1.92;1.38;;;;;;;29.10;38.22;96519.59;5093133;28;20473;-28
2022/08/13 06:51:07;;;;;;;2.33;1.50;;;;;;;29.11;38.24;96514.75;5093360;28;20031;-28
2022/08/13 06:53:35;;;;;;;1.77;1.25;;;;;;;29.05;38.59;96514.19;5092987;28;20024;-28
2022/08/13 06:56:03;;;;;;;1.83;1.40;;;;;;;29.11;38.24;96498.75;5093003;28;20077;-28
2022/08/13 06:58:30;;;;;;;1.70;1.10;;;;;;;29.07;38.33;96509.50;5092841;28;20035;-29
2022/08/13 07:00:56;;;;;;;2.90;1.33;;;;;;;29.05;38.30;96509.34;5092765;28;20024;-29
2022/08/13 07:03:26;;;;;;;1.85;1.15;;;;;;;29.05;38.37;96505.81;5094477;28;20107;-29
2022/08/13 07:05:52;;;;;;;1.85;1.48;;;;;;;29.03;38.48;96511.19;5102458;27;20098;-28
2022/08/13 07:08:20;;;;;;;2.35;1.50;;;;;;;29.10;38.18;96504.88;5124657;27;20043;-28
2022/08/13 07:10:51;;;;;;;2.40;1.67;;;;;;;29.05;38.29;96500.97;5115012;28;20030;-28
2022/08/13 07:13:17;;;;;;;3.28;1.92;;;;;;;29.05;38.42;96494.63;5133426;27;20027;-28
2022/08/13 07:15:52;;;;;;;4.60;2.25;;;;;;;29.02;38.14;96513.22;5135534;27;20377;-29
2022/08/13 07:18:17;;;;;;;3.95;1.83;;;;;;;29.09;38.09;96506.94;5134948;27;20514;-29
2022/08/13 07:20:44;;;;;;;2.70;1.63;;;;;;;29.03;38.25;96513.97;5135344;27;20027;-29
2022/08/13 07:23:11;;;;;;;2.78;1.50;;;;;;;29.02;38.37;96520.84;5135220;27;20027;-28
2022/08/13 07:25:39;;;;;;;3.05;1.45;;;;;;;29.02;37.96;96526.44;5115186;27;20036;-29
2022/08/13 07:28:05;;;;;;;3.85;1.77;;;;;;;29.05;38.14;96523.31;5114533;28;20035;-28
2022/08/13 07:30:31;;;;;;;2.28;1.60;;;;;;;29.03;38.00;96533.53;5114349;27;20027;-29
2022/08/13 07:32:57;;;;;;;3.45;1.48;;;;;;;29.03;38.03;96519.56;5114542;28;20024;-28
2022/08/13 07:35:23;;;;;;;1.50;1.30;;;;;;;29.07;37.80;96525.53;5113259;28;20015;-29
2022/08/13 07:37:52;;;;;;;2.85;1.35;;;;;;;29.02;38.15;96529.22;5113667;28;20054;-30
2022/08/13 07:40:19;;;;;;;2.20;1.30;;;;;;;29.03;37.72;96516.75;5112572;28;20031;-28
2022/08/13 07:42:45;;;;;;;2.30;1.60;;;;;;;28.93;37.76;96520.03;5114085;28;20030;-28
2022/08/13 07:45:11;;;;;;;1.80;1.20;;;;;;;29.00;38.03;96509.47;5114262;28;20024;-28
2022/08/13 07:47:39;;;;;;;1.63;1.25;;;;;;;28.94;38.20;96518.75;5114091;28;20035;-28
2022/08/13 07:50:10;;;;;;;1.13;0.98;;;;;;;29.00;37.77;96513.00;5114229;28;20043;-28
2022/08/13 07:52:37;;;;;;;3.65;1.27;;;;;;;28.95;37.77;96513.91;5114004;28;20091;-28
2022/08/13 07:55:04;;;;;;;1.10;1.00;;;;;;;29.00;37.66;96515.81;5113863;28;20425;-28
2022/08/13 07:57:32;;;;;;;1.20;1.00;;;;;;;29.00;37.75;96515.06;5110327;28;20511;-28
2022/08/13 07:59:58;;;;;;;1.77;1.10;;;;;;;28.97;37.70;96510.56;5095612;28;20028;-28
2022/08/13 08:02:31;;;;;;;1.98;1.10;;;;;;;28.90;37.78;96507.19;5095430;28;20484;-30
2022/08/13 08:04:57;;;;;;;;;;;;;;;28.83;38.03;96502.28;5095760;28;20270;-28
2022/08/13 08:07:25;;;;;;;3.40;1.85;;;;;;;28.91;37.72;96500.31;5095369;28;19916;-28
2022/08/13 08:09:52;;;;;;;2.85;1.48;;;;;;;28.91;37.71;96493.97;5095349;28;20020;-29
2022/08/13 08:12:32;;;;;;;3.65;2.10;;;;;;;28.91;37.75;96491.94;5095275;28;20447;-28
2022/08/13 08:14:59;;;;;;;2.63;1.90;;;;;;;28.91;37.68;96493.97;5094965;28;20468;-28
2022/08/13 08:17:26;;;;;;;3.78;2.03;;;;;;;28.88;38.04;96504.19;5095218;28;20039;-29
2022/08/13 08:19:53;;;;;;;3.38;2.08;;;;;;;28.87;37.80;96502.69;5094976;28;20081;-30
2022/08/13 08:22:20;;;;;;;2.40;1.80;;;;;;;28.92;37.71;96501.06;5095228;28;20027;-29
2022/08/13 08:24:49;;;;;;;4.63;1.60;;;;;;;28.96;37.71;96495.84;5095041;28;20024;-28
2022/08/13 08:27:19;;;;;;;2.40;1.80;;;;;;;28.79;37.88;96507.47;5095114;28;20111;-28
2022/08/13 08:29:46;;;;;;;2.28;1.85;;;;;;;28.90;37.88;96512.78;5094568;28;20023;-28
2022/08/13 08:32:14;;;;;;;3.30;1.73;;;;;;;28.86;37.91;96517.19;5094950;28;20036;-28
2022/08/13 08:34:46;;;;;;;1.85;1.60;;;;;;;28.89;38.14;96516.09;5093825;28;20335;-29
2022/08/13 08:42:54;;;;;;;1.70;1.40;;;;;;;28.79;38.38;96504.69;5093671;28;20123;-28
2022/08/13 08:45:21;;;;;;;1.55;1.30;;;;;;;28.84;38.46;96512.16;5094568;28;20027;-29
2022/08/13 08:47:48;;;;;;;1.80;1.40;;;;;;;28.82;38.58;96500.78;5094527;28;20098;-28
2022/08/13 08:50:16;;;;;;;3.05;1.35;;;;;;;28.72;38.85;96505.34;5094494;28;20024;-28
2022/08/13 08:55:36;;;;;;;3.17;1.40;;;;;;;28.22;40.99;96507.31;5094594;28;20034;-29
2022/08/13 08:58:29;;;;;;;1.25;1.05;;;;;;;27.23;43.62;96505.34;5094544;28;20442;-25
2022/08/13 09:00:56;;;;;;;2.97;1.00;;;;;;;27.46;43.54;96500.84;5091813;28;20027;-28
2022/08/13 09:03:27;;;;;;;2.25;1.40;;;;;;;27.80;42.62;96497.38;5093449;28;20511;-29
2022/08/13 09:05:52;;;;;;;2.95;1.27;;;;;;;28.24;41.26;96504.75;5093955;28;20050;-29
2022/08/13 09:08:19;;;;;;;2.33;1.20;;;;;;;28.51;40.30;96499.03;5093065;28;20027;-29
2022/08/13 09:10:52;;;;;;;6.10;1.40;;;;;;;28.44;40.70;96491.34;5094153;28;20416;-29
2022/08/13 09:13:21;;;;;;;2.17;1.23;;;;;;;28.52;40.16;96498.50;5094429;28;20415;-29
2022/08/13 09:15:48;;;;;;;5.15;1.30;;;;;;;28.64;39.69;96506.59;5094056;28;20039;-29
2022/08/13 09:18:23;;;;;;;1.50;1.13;;;;;;;28.71;39.67;96501.03;5094285;28;20032;-29
2022/08/13 09:20:49;;;;;;;2.45;1.38;;;;;;;28.72;39.51;96502.53;5093976;28;20020;-29
2022/08/13 09:23:16;;;;;;;2.90;1.33;;;;;;;28.78;39.23;96505.22;5094174;28;20501;-29
2022/08/13 09:25:48;;;;;;;1.80;1.27;;;;;;;28.59;39.77;96499.84;5093187;28;20052;-29
2022/08/13 09:28:18;;;;;;;1.95;1.20;;;;;;;28.73;39.11;96512.41;5093824;28;20024;-29
2022/08/13 09:30:45;;;;;;;1.70;1.08;;;;;;;28.69;39.15;96514.78;5093806;28;20520;-29
2022/08/13 09:33:12;;;;;;;1.98;1.02;;;;;;;28.73;38.75;96506.84;5093831;28;20016;-30
2022/08/13 09:35:39;;;;;;;1.00;0.90;;;;;;;28.77;38.69;96509.28;5093602;28;20024;-29
2022/08/13 09:38:06;;;;;;;1.42;1.15;;;;;;;28.72;38.75;96510.91;5093899;28;20028;-29
2022/08/13 09:40:48;;;;;;;2.88;1.20;;;;;;;28.81;38.75;96502.06;5093644;28;20031;-29
2022/08/13 09:43:30;;;;;;;2.03;1.17;;;;;;;28.73;38.69;96508.88;5093852;28;20528;-29
2022/08/13 09:45:56;;;;;;;1.13;1.00;;;;;;;28.76;38.49;96508.53;5093333;28;20024;-30
2022/08/13 09:48:24;;;;;;;1.27;1.13;;;;;;;28.81;38.44;96501.31;5093523;28;20542;-29
2022/08/13 09:50:52;;;;;;;1.40;1.13;;;;;;;28.65;38.56;96506.03;5093555;28;20020;-29
2022/08/13 09:53:18;;;;;;;2.63;1.23;;;;;;;28.62;38.68;96498.75;5093601;28;20393;-29
2022/08/13 09:55:45;;;;;;;1.42;1.00;;;;;;;28.76;38.46;96502.97;5093775;28;20131;-29
2022/08/13 09:58:11;;;;;;;2.05;1.05;;;;;;;28.72;38.40;96502.53;5108141;28;20489;-29
2022/08/13 10:00:37;;;;;;;2.60;1.00;;;;;;;28.77;38.11;96498.13;5113681;28;20047;-30
2022/08/13 10:03:06;;;;;;;1.00;0.80;;;;;;;28.67;38.25;96488.75;5113854;28;20107;-31
2022/08/13 10:05:34;;;;;;;1.40;0.90;;;;;;;28.78;38.16;96499.63;5113591;28;20019;-29
2022/08/13 10:08:04;;;;;;;1.85;0.98;;;;;;;28.80;37.91;96502.66;5114008;28;20036;-29
2022/08/13 10:10:30;;;;;;;1.45;1.10;;;;;;;28.57;38.47;96499.63;5113736;28;20039;-30
2022/08/13 10:12:59;;;;;;;0.82;0.80;;;;;;;28.79;37.90;96501.16;5113636;28;20106;-29
2022/08/13 10:15:24;;;;;;;1.13;1.02;;;;;;;28.84;37.67;96503.78;5114090;28;20051;-29
2022/08/13 10:18:02;;;;;;;1.15;1.00;;;;;;;28.70;37.96;96505.13;5113721;28;20030;-30
2022/08/13 10:20:38;;;;;;;1.70;0.93;;;;;;;28.70;37.70;96504.38;5113792;28;20392;-29
2022/08/13 10:23:06;;;;;;;2.05;1.00;;;;;;;28.85;37.66;96504.53;5113538;28;20106;-29
2022/08/13 10:25:33;;;;;;;1.00;0.90;;;;;;;28.88;37.25;96503.44;5113517;28;20020;-30
2022/08/13 10:27:59;;;;;;;1.67;1.02;;;;;;;28.81;37.53;96504.88;5113465;28;20039;-29
2022/08/13 10:30:27;;;;;;;3.42;1.60;;;;;;;28.86;37.41;96506.03;5113436;28;20031;-29
2022/08/13 10:32:55;;;;;;;1.58;1.48;;;;;;;28.86;37.18;96501.19;5109348;28;20012;-29
2022/08/13 10:35:25;;;;;;;2.47;2.08;;;;;;;28.70;37.50;96499.56;5106926;28;20019;-29
2022/08/13 10:37:56;;;;;;;1.55;1.45;;;;;;;28.65;37.35;96502.50;5115695;28;20028;-29
2022/08/13 10:40:23;;;;;;;2.15;1.42;;;;;;;28.63;37.38;96500.25;5117486;28;20106;-29
2022/08/13 10:42:49;;;;;;;3.47;1.90;;;;;;;28.44;37.95;96494.13;5117370;27;20080;-29
2022/08/13 10:45:15;;;;;;;2.53;1.70;;;;;;;28.69;37.31;96500.09;5117201;28;20413;-29
2022/08/13 10:47:45;;;;;;;2.03;1.83;;;;;;;28.72;37.07;96502.53;5117429;28;20370;-29
2022/08/13 10:50:13;;;;;;;2.05;1.80;;;;;;;28.34;36.30;96512.63;5117270;28;20061;-29
2022/08/13 10:52:38;;;;;;;2.30;1.83;;;;;;;28.66;36.77;96504.00;5117162;28;20329;-29
2022/08/13 10:55:08;;;;;;;1.90;1.70;;;;;;;28.35;37.52;96505.75;5117544;28;20111;-30
2022/08/13 10:57:36;;;;;;;1.77;1.60;;;;;;;28.64;36.64;96504.53;5117085;28;20453;-29
2022/08/13 11:00:03;;;;;;;1.48;1.30;;;;;;;28.47;36.70;96493.78;5117147;28;20020;-29
2022/08/13 11:02:29;;;;;;;2.10;1.88;;;;;;;28.68;36.64;96493.03;5117077;27;20027;-30
2022/08/13 11:04:54;;;;;;;1.77;1.52;;;;;;;28.54;36.77;96495.91;5116814;28;20373;-29
2022/08/13 11:07:20;;;;;;;1.40;1.17;;;;;;;28.30;36.49;96487.88;5116781;28;20047;-29
2022/08/13 11:09:46;;;;;;;1.70;1.30;;;;;;;28.43;36.89;96481.50;5117070;28;20034;-29
2022/08/13 11:12:12;;;;;;;1.88;1.40;;;;;;;28.31;35.82;96486.59;5116825;28;20019;-29
2022/08/13 11:14:41;;;;;;;1.75;1.25;;;;;;;28.25;37.22;96494.34;5116892;28;20020;-30
2022/08/13 11:17:09;;;;;;;1.42;1.33;;;;;;;28.69;36.19;96489.69;5117193;27;20025;-29
2022/08/13 11:19:38;;;;;;;1.60;1.50;;;;;;;28.83;36.24;96484.78;5116750;27;20019;-29
2022/08/13 11:22:04;;;;;;;1.60;1.50;;;;;;;28.82;36.31;96495.19;5116521;28;20106;-29
2022/08/13 11:24:29;;;;;;;1.60;1.50;;;;;;;28.74;36.54;96494.38;5116563;28;20099;-29
2022/08/13 11:26:56;;;;;;;2.08;1.25;;;;;;;28.76;36.31;96491.78;5116493;28;20015;-29
2022/08/13 11:29:21;;;;;;;1.38;1.27;;;;;;;28.81;36.32;96487.38;5116725;28;20016;-29
2022/08/13 11:31:47;;;;;;;1.58;1.48;;;;;;;28.85;36.23;96482.94;5116532;28;20032;-29
2022/08/13 11:34:12;;;;;;;1.45;1.20;;;;;;;28.79;36.34;96479.56;5116383;28;20023;-29
2022/08/13 11:36:38;;;;;;;1.38;1.20;;;;;;;28.87;36.23;96469.19;5116451;28;20046;-30
2022/08/13 11:39:04;;;;;;;1.58;1.48;;;;;;;28.90;36.09;96478.53;5116338;28;20465;-29
2022/08/13 11:41:29;;;;;;;2.03;1.30;;;;;;;28.74;36.51;96485.25;5116102;27;20024;-29
2022/08/13 11:43:55;;;;;;;1.50;1.38;;;;;;;28.82;36.29;96481.25;5116330;28;20016;-29
2022/08/13 11:46:21;;;;;;;1.35;1.25;;;;;;;28.78;36.43;96480.88;5116121;28;20058;-29
2022/08/13 11:48:48;;;;;;;2.03;1.40;;;;;;;28.90;36.14;96473.69;5115408;28;20500;-29
2022/08/13 11:51:14;;;;;;;1.52;1.40;;;;;;;28.91;36.17;96480.78;5116082;27;20074;-29
2022/08/13 11:53:39;;;;;;;2.08;1.30;;;;;;;28.74;36.35;96477.63;5115782;28;20461;-29
2022/08/13 11:56:05;;;;;;;1.85;1.45;;;;;;;28.86;36.08;96484.44;5115968;28;20034;-29
2022/08/13 11:58:33;;;;;;;1.27;1.17;;;;;;;28.66;36.84;96473.31;5116002;28;20060;-29
2022/08/13 12:00:59;;;;;;;1.70;1.60;;;;;;;28.82;36.26;96470.09;5115840;28;20465;-29
2022/08/13 12:03:25;;;;;;;1.30;1.20;;;;;;;28.89;36.15;96477.03;5115842;28;20035;-31
2022/08/13 12:05:50;;;;;;;1.52;1.38;;;;;;;28.82;36.25;96472.88;5115557;27;20438;-29
2022/08/13 12:08:18;;;;;;;2.58;1.52;;;;;;;28.86;36.21;96470.50;5115815;28;20020;-28
2022/08/13 12:10:44;;;;;;;1.30;1.20;;;;;;;28.79;36.25;96471.19;5115843;28;20027;-29
2022/08/13 12:13:09;;;;;;;1.55;1.15;;;;;;;28.37;37.01;96470.47;5116200;28;20031;-29
2022/08/13 12:15:35;;;;;;;3.80;1.50;;;;;;;28.66;36.02;96465.69;5115715;28;20023;-29
2022/08/13 12:18:00;;;;;;;2.13;1.25;;;;;;;28.72;36.23;96473.88;5115521;28;20023;-29
2022/08/13 12:20:26;;;;;;;1.27;1.17;;;;;;;28.53;35.63;96460.19;5115700;28;20023;-29